Decoded Metar for SBBV (BOA VISTA in BRAZIL) (IATA:BVB) | Meteo·Mobile Aviation Weather
aviador You're here:

SBBV Decoded Metar

BOA VISTA in BRAZIL
Report Time2018-08-21 20:00:00
UTC Time2018-08-21 19:55:36
Flight Rules vfr VFR
Wind130° at 05 kt
W.Decomp.*RWY 08: 2.2 kt HW 4.5 kt RCW
W.Rank130° ranks 10
Current wind is below 130° avg. (5.8)
Visibility9999 m
Phenomena:N/A
Clouds:Scattered 035 Hf
Expected CloudBase > 4,800 ft AGL from Temp-Dew spread
CeilingNone
Temp34°C (ISA +20)
Dew Point22°C (49% RH)
Heat Index38.1°C
QNH1011 hPa
Density Alt3,136 ft
Elevation459 ft
Report Wrong Elevation
Raw Report
METAR SBBV 212000Z 13005KT 9999 SCT035 34/22 Q1011=

Extra information for SBBV:More info

Metar Taf Metar & Taf Last 4 Metars F.Rules Stats Wind Profile Meteogram Temp Stats Airport Information Weather charts Add Link Nearby VenuesMetar ALERT Operation Metar Decoded Social comments